Kyokuho Maru No.15 — JI3715 — position and weather

sailwx.info

Track history (hours):
 
Tides and Currents Weather Stations Pressure Air Temp Water Temp Dewpoint Dewpoint Depression Visibility Wind Speed Wind Dir Waves Ship Positions

Kyokuho Maru No.15

Last reported at 2015-Jul-23 05:21 UTC. Time now 2015-Aug-01 09:46 UTC.
Position N 35°08' E 139°43'.
Warning: this ship's position is 9 days out of date.

Length 63 m; draft 4.2 m.

Type: Tanker. MMSI: 431301714.

Date/timePositionNaut miles runAvg speedWind from/ knotsBaromVisibWave heightAir tempDewpointWater temp
2015-Jul-23 05:21N 35°08' E 139°43'8 9.8
2015-Jul-23 04:33N 35°16' E 139°46'10 9.8
2015-Jul-23 03:34N 35°25' E 139°44'1010.1
2015-Jul-23 02:33N 35°30' E 139°55'5 5.0
2015-Jul-23 01:33N 35°28' E 140°01'0 0.0
2015-Jul-23 00:33N 35°28' E 140°01'0 0.0
2015-Jul-22 23:33N 35°28' E 140°01'0 0.0
2015-Jul-22 22:34N 35°28' E 140°01'1 1.5
2015-Jul-22 21:34N 35°29' E 139°60'1 0.6
2015-Jul-22 20:33N 35°30' E 139°59'0 0.0
2015-Jul-22 19:33N 35°30' E 139°59'0 0.0
2015-Jul-22 18:34N 35°30' E 139°59'0 0.0
2015-Jul-22 17:33N 35°30' E 139°59'0 0.0
2015-Jul-22 16:33N 35°30' E 139°59'0 0.0
2015-Jul-22 15:33N 35°30' E 139°59'0 0.0
2015-Jul-22 14:33N 35°30' E 139°59'0 0.0
2015-Jul-22 13:33N 35°30' E 139°59'0 0.0
2015-Jul-22 12:34N 35°30' E 139°59'0 0.0
2015-Jul-22 11:33N 35°30' E 139°59'1 0.6
2015-Jul-22 10:33N 35°30' E 139°58'1010.4
2015-Jul-22 09:33N 35°32' E 139°46'0 0.0
2015-Jul-22 08:33N 35°32' E 139°46'0 0.0
2015-Jul-22 07:33N 35°32' E 139°46'0 0.0
2015-Jul-22 06:33N 35°32' E 139°46'0 0.0
2015-Jul-22 05:33N 35°32' E 139°46'0 0.0
2015-Jul-22 04:32N 35°32' E 139°46'0 0.0
2015-Jul-22 03:33N 35°32' E 139°46'1 0.9
2015-Jul-22 02:34N 35°31' E 139°46'0 0.0
2015-Jul-22 01:34N 35°31' E 139°46'0 0.0
2015-Jul-22 00:34N 35°31' E 139°46'0 0.0
2015-Jul-21 23:34N 35°31' E 139°46'1 1.4
2015-Jul-21 22:34N 35°30' E 139°48'2 1.8
2015-Jul-21 21:32N 35°31' E 139°50'0 0.0
2015-Jul-21 20:32N 35°31' E 139°50'0 0.0
2015-Jul-21 19:33N 35°31' E 139°50'0 0.0
2015-Jul-21 18:34N 35°31' E 139°50'0 0.0
2015-Jul-21 17:31N 35°31' E 139°50'0 0.0
2015-Jul-21 16:32N 35°31' E 139°50'0 0.0
2015-Jul-21 15:34N 35°31' E 139°50'0 0.0
2015-Jul-21 14:33N 35°31' E 139°50'0 0.0
2015-Jul-21 13:31N 35°31' E 139°50'0 0.0
2015-Jul-21 12:33N 35°31' E 139°50'0 0.0
2015-Jul-21 11:32N 35°31' E 139°50'0 0.0
2015-Jul-21 10:29N 35°31' E 139°50'0 0.0
2015-Jul-21 09:31N 35°31' E 139°50'0 0.1
2015-Jul-21 08:32N 35°31' E 139°50'0 0.0
2015-Jul-21 07:31N 35°31' E 139°50'0 0.0
2015-Jul-21 06:28N 35°31' E 139°50'0 0.0
2015-Jul-21 05:31N 35°31' E 139°50'0 0.0
2015-Jul-21 04:28N 35°31' E 139°50'3 3.1
2015-Jul-21 03:34N 35°32' E 139°53'1111.3
2015-Jul-21 02:33N 35°36' E 140°06'0 0.0
2015-Jul-21 01:34N 35°36' E 140°06'3 2.6
2015-Jul-21 00:34N 35°35' E 140°03'1111.2
2015-Jul-20 23:33N 35°37' E 139°50'0 0.4
2015-Jul-20 22:33N 35°37' E 139°50'7 6.7
2015-Jul-20 21:33N 35°35' E 139°58'7 7.2
2015-Jul-20 20:34N 35°36' E 140°06'0 0.0
2015-Jul-20 19:34N 35°36' E 140°06'0 0.0
2015-Jul-20 18:34N 35°36' E 140°06'0 0.0
2015-Jul-20 17:33N 35°36' E 140°06'0 0.0
2015-Jul-20 16:33N 35°36' E 140°06'0 0.0
2015-Jul-20 15:33N 35°36' E 140°06'0 0.0
2015-Jul-20 14:34N 35°36' E 140°06'0 0.0
2015-Jul-20 13:33N 35°36' E 140°06'0 0.0
2015-Jul-20 12:33N 35°36' E 140°06'0 0.0
2015-Jul-20 11:33N 35°36' E 140°06'0 0.0
2015-Jul-20 10:34N 35°36' E 140°06'0 0.0
2015-Jul-20 09:33N 35°36' E 140°06'0 0.0
2015-Jul-20 08:33N 35°36' E 140°06'0 0.0
2015-Jul-20 07:33N 35°36' E 140°06'0 0.0
2015-Jul-20 06:33N 35°36' E 140°06'0 0.0
2015-Jul-20 05:33N 35°36' E 140°06'0 0.0
2015-Jul-20 04:33N 35°36' E 140°06'0 0.0
2015-Jul-20 03:33N 35°36' E 140°06'0 0.0
2015-Jul-20 02:34N 35°36' E 140°06'0 0.0
2015-Jul-20 01:33N 35°36' E 140°06'0 0.0
2015-Jul-20 00:34N 35°36' E 140°06'0 0.0
2015-Jul-19 23:33N 35°36' E 140°06'2 2.3
2015-Jul-19 22:33N 35°35' E 140°04'0 0.0
2015-Jul-19 21:30N 35°35' E 140°04'0 0.0
2015-Jul-19 20:30N 35°35' E 140°04'0 0.0
2015-Jul-19 19:33N 35°35' E 140°04'0 0.0
2015-Jul-19 18:27N 35°35' E 140°04'0 0.0
2015-Jul-19 17:33N 35°35' E 140°04'0 0.0
2015-Jul-19 16:27N 35°35' E 140°04'0 0.0
2015-Jul-19 15:33N 35°35' E 140°04'0 0.0
2015-Jul-19 14:30N 35°35' E 140°04'0 0.0
2015-Jul-19 13:33N 35°35' E 140°04'0 0.0
2015-Jul-19 12:33N 35°35' E 140°04'0 0.0
2015-Jul-19 11:33N 35°35' E 140°04'0 0.0
2015-Jul-19 10:33N 35°35' E 140°04'0 0.0
2015-Jul-19 09:33N 35°35' E 140°04'0 0.0
2015-Jul-19 08:33N 35°35' E 140°04'0 0.0
2015-Jul-19 07:33N 35°35' E 140°04'4 4.2
2015-Jul-19 06:33N 35°35' E 139°59'5 4.8
2015-Jul-19 05:33N 35°32' E 139°55'9 9.4
2015-Jul-19 04:33N 35°27' E 139°45'6 1.5
2015-Jul-19 00:33N 35°25' E 139°38'0 0.0
2015-Jul-18 23:33N 35°25' E 139°38'3 2.7
2015-Jul-18 22:33N 35°23' E 139°41'8 8.0
2015-Jul-18 21:33N 35°30' E 139°46'0 0.0
2015-Jul-18 03:22N 35°30' E 139°46'6 7.2
2015-Jul-18 02:33N 35°29' E 139°53'1 1.5
2015-Jul-18 01:33N 35°28' E 139°55'0 0.0
2015-Jul-18 00:33N 35°28' E 139°55'0 0.0
2015-Jul-17 23:33N 35°28' E 139°55'0 0.0
2015-Jul-17 22:33N 35°28' E 139°55'0 0.0
2015-Jul-17 21:33N 35°28' E 139°55'0 0.0
2015-Jul-17 20:33N 35°28' E 139°55'0 0.0
2015-Jul-17 19:33N 35°28' E 139°55'0 0.0
2015-Jul-17 18:33N 35°28' E 139°55'0 0.0
2015-Jul-17 17:33N 35°28' E 139°55'0 0.0
2015-Jul-17 16:33N 35°28' E 139°55'0 0.0
2015-Jul-17 15:33N 35°28' E 139°55'0 0.0
2015-Jul-17 14:33N 35°28' E 139°55'0 0.0
2015-Jul-17 13:33N 35°28' E 139°55'0 0.0
2015-Jul-17 12:33N 35°28' E 139°55'0 0.0
2015-Jul-17 11:33N 35°28' E 139°55'0 0.0
2015-Jul-17 10:33N 35°28' E 139°55'0 0.0
2015-Jul-17 09:33N 35°28' E 139°55'0 0.0
2015-Jul-17 08:33N 35°28' E 139°55'0 0.0
2015-Jul-17 07:33N 35°28' E 139°55'0 0.0
2015-Jul-17 06:33N 35°28' E 139°55'0 0.0
2015-Jul-17 05:33N 35°28' E 139°55'0 0.0
2015-Jul-17 04:33N 35°28' E 139°55'0 0.0
2015-Jul-17 03:33N 35°28' E 139°55'0 0.0
2015-Jul-17 02:33N 35°28' E 139°55'0 0.1
2015-Jul-17 01:33N 35°28' E 139°54'0 0.0
2015-Jul-17 00:33N 35°28' E 139°54'0 0.0
2015-Jul-16 23:33N 35°28' E 139°54'0 0.0
2015-Jul-16 22:33N 35°28' E 139°54'0 0.0
2015-Jul-16 21:33N 35°28' E 139°54'0 0.1
2015-Jul-16 20:33N 35°28' E 139°55'0 0.0
2015-Jul-16 19:33N 35°28' E 139°55'0 0.0
2015-Jul-16 18:33N 35°28' E 139°55'0 0.0
2015-Jul-16 17:33N 35°28' E 139°55'0 0.0
2015-Jul-16 16:33N 35°28' E 139°55'0 0.0
2015-Jul-16 15:33N 35°28' E 139°55'0 0.0
2015-Jul-16 14:33N 35°28' E 139°55'0 0.0
2015-Jul-16 13:33N 35°28' E 139°54'0 0.0
2015-Jul-16 12:33N 35°28' E 139°54'0 0.0
2015-Jul-16 11:33N 35°28' E 139°54'0 0.0
2015-Jul-16 10:33N 35°28' E 139°54'0 0.0
2015-Jul-16 09:33N 35°28' E 139°54'0 0.0
2015-Jul-16 08:33N 35°28' E 139°54'0 0.0
2015-Jul-16 07:33N 35°28' E 139°54'0 0.0
2015-Jul-16 06:33N 35°28' E 139°54'0 0.0
2015-Jul-16 05:33N 35°28' E 139°54'0 0.0
2015-Jul-16 04:33N 35°28' E 139°54'0 0.0
2015-Jul-16 03:33N 35°28' E 139°54'0 0.0
2015-Jul-16 02:33N 35°28' E 139°54'0 0.0
2015-Jul-16 01:33N 35°28' E 139°54'0 0.1
2015-Jul-16 00:33N 35°28' E 139°54'4 3.7
2015-Jul-15 23:33N 35°28' E 139°50'10 9.5
2015-Jul-15 22:33N 35°23' E 139°40'0 0.0
2015-Jul-15 21:32N 35°23' E 139°40'0 0.0
2015-Jul-15 20:32N 35°23' E 139°40'0 0.0
2015-Jul-15 19:29N 35°23' E 139°40'0 0.0
2015-Jul-15 18:29N 35°23' E 139°40'0 0.0
2015-Jul-15 17:32N 35°23' E 139°40'0 0.0
2015-Jul-15 16:32N 35°23' E 139°40'0 0.0
2015-Jul-15 15:32N 35°23' E 139°40'0 0.0
2015-Jul-15 14:32N 35°23' E 139°40'0 0.0
2015-Jul-15 13:32N 35°23' E 139°40'0 0.0
2015-Jul-15 12:32N 35°23' E 139°40'0 0.0
2015-Jul-15 11:32N 35°23' E 139°40'0 0.0
2015-Jul-15 10:32N 35°23' E 139°40'0 0.1
2015-Jul-15 09:32N 35°23' E 139°40'0 0.0
2015-Jul-15 08:32N 35°23' E 139°40'0 0.0
2015-Jul-15 07:32N 35°23' E 139°40'0 0.0
2015-Jul-15 06:29N 35°23' E 139°40'0 0.1
2015-Jul-15 05:32N 35°23' E 139°40'0 0.0
2015-Jul-15 04:32N 35°23' E 139°40'0 0.0
2015-Jul-15 03:32N 35°23' E 139°40'0 0.0
2015-Jul-15 02:32N 35°23' E 139°40'0 0.0
2015-Jul-15 01:31N 35°23' E 139°40'0 0.0
2015-Jul-15 00:33N 35°23' E 139°40'0 0.0
2015-Jul-14 23:33N 35°23' E 139°40'0 0.0
2015-Jul-14 22:33N 35°23' E 139°40'0 0.1
2015-Jul-14 21:33N 35°23' E 139°40'0 0.4
2015-Jul-14 20:33N 35°23' E 139°40'4 3.9
2015-Jul-14 19:32N 35°27' E 139°40'0 0.0
2015-Jul-14 18:32N 35°27' E 139°40'0 0.0
2015-Jul-14 17:32N 35°27' E 139°40'0 0.0
2015-Jul-14 16:32N 35°27' E 139°40'0 0.0
2015-Jul-14 15:32N 35°27' E 139°40'0 0.0
2015-Jul-14 14:32N 35°27' E 139°40'0 0.0
2015-Jul-14 13:32N 35°27' E 139°40'0 0.0
2015-Jul-14 12:32N 35°27' E 139°40'0 0.0
2015-Jul-14 11:32N 35°27' E 139°40'0 0.0
2015-Jul-14 10:32N 35°27' E 139°40'0 0.0
2015-Jul-14 09:32N 35°27' E 139°40'0 0.0
2015-Jul-14 08:32N 35°27' E 139°40'0 0.0
2015-Jul-14 07:32N 35°27' E 139°40'0 0.0
2015-Jul-14 06:32N 35°27' E 139°40'0 0.0
2015-Jul-14 05:32N 35°27' E 139°40'0 0.0
2015-Jul-14 04:33N 35°27' E 139°40'0 0.0
2015-Jul-14 03:33N 35°27' E 139°40'0 0.0
2015-Jul-14 02:33N 35°27' E 139°40'0 0.4
2015-Jul-14 01:33N 35°27' E 139°40'5 4.5
2015-Jul-14 00:32N 35°23' E 139°40'0 0.0
2015-Jul-13 23:32N 35°23' E 139°40'0 0.0
2015-Jul-13 22:32N 35°23' E 139°40'0 0.0
2015-Jul-13 21:33N 35°23' E 139°40'0 0.0
2015-Jul-13 20:32N 35°23' E 139°40'0 0.0
2015-Jul-13 19:32N 35°23' E 139°40'0 0.0
2015-Jul-13 18:33N 35°23' E 139°40'0 0.0
2015-Jul-13 17:32N 35°23' E 139°40'0 0.0
2015-Jul-13 16:33N 35°23' E 139°40'0 0.0
2015-Jul-13 15:33N 35°23' E 139°40'0 0.0
2015-Jul-13 14:32N 35°23' E 139°40'0 0.0
2015-Jul-13 13:32N 35°23' E 139°40'0 0.0
2015-Jul-13 12:33N 35°23' E 139°40'0 0.0
2015-Jul-13 11:32N 35°23' E 139°40'0 0.0
2015-Jul-13 10:33N 35°23' E 139°40'0 0.0
2015-Jul-13 09:33N 35°23' E 139°40'0 0.0
2015-Jul-13 08:32N 35°23' E 139°40'0 0.0
2015-Jul-13 07:33N 35°23' E 139°40'0 0.0
2015-Jul-13 06:32N 35°23' E 139°40'0 0.0
2015-Jul-13 05:33N 35°23' E 139°40'  
Track history (hours):
 
Tides and Currents Weather Stations Pressure Air Temp Water Temp Dewpoint Dewpoint Depression Visibility Wind Speed Wind Dir Waves Ship Positions

Kyokuho Maru No.15

Last reported at 2015-Jul-23 05:21 UTC. Time now 2015-Aug-01 09:46 UTC.
Position N 35°08' E 139°43'.
Warning: this ship's position is 9 days out of date.

Length 63 m; draft 4.2 m.

Type: Tanker. MMSI: 431301714.

Date/timePositionNaut miles runAvg speedWind from/ knotsBaromVisibWave heightAir tempDewpointWater temp
2015-Jul-23 05:21N 35°08' E 139°43'8 9.8
2015-Jul-23 04:33N 35°16' E 139°46'10 9.8
2015-Jul-23 03:34N 35°25' E 139°44'1010.1
2015-Jul-23 02:33N 35°30' E 139°55'5 5.0
2015-Jul-23 01:33N 35°28' E 140°01'0 0.0
2015-Jul-23 00:33N 35°28' E 140°01'0 0.0
2015-Jul-22 23:33N 35°28' E 140°01'0 0.0
2015-Jul-22 22:34N 35°28' E 140°01'1 1.5
2015-Jul-22 21:34N 35°29' E 139°60'1 0.6
2015-Jul-22 20:33N 35°30' E 139°59'0 0.0
2015-Jul-22 19:33N 35°30' E 139°59'0 0.0
2015-Jul-22 18:34N 35°30' E 139°59'0 0.0
2015-Jul-22 17:33N 35°30' E 139°59'0 0.0
2015-Jul-22 16:33N 35°30' E 139°59'0 0.0
2015-Jul-22 15:33N 35°30' E 139°59'0 0.0
2015-Jul-22 14:33N 35°30' E 139°59'0 0.0
2015-Jul-22 13:33N 35°30' E 139°59'0 0.0
2015-Jul-22 12:34N 35°30' E 139°59'0 0.0
2015-Jul-22 11:33N 35°30' E 139°59'1 0.6
2015-Jul-22 10:33N 35°30' E 139°58'1010.4
2015-Jul-22 09:33N 35°32' E 139°46'0 0.0
2015-Jul-22 08:33N 35°32' E 139°46'0 0.0
2015-Jul-22 07:33N 35°32' E 139°46'0 0.0
2015-Jul-22 06:33N 35°32' E 139°46'0 0.0
2015-Jul-22 05:33N 35°32' E 139°46'0 0.0
2015-Jul-22 04:32N 35°32' E 139°46'0 0.0
2015-Jul-22 03:33N 35°32' E 139°46'1 0.9
2015-Jul-22 02:34N 35°31' E 139°46'0 0.0
2015-Jul-22 01:34N 35°31' E 139°46'0 0.0
2015-Jul-22 00:34N 35°31' E 139°46'0 0.0
2015-Jul-21 23:34N 35°31' E 139°46'1 1.4
2015-Jul-21 22:34N 35°30' E 139°48'2 1.8
2015-Jul-21 21:32N 35°31' E 139°50'0 0.0
2015-Jul-21 20:32N 35°31' E 139°50'0 0.0
2015-Jul-21 19:33N 35°31' E 139°50'0 0.0
2015-Jul-21 18:34N 35°31' E 139°50'0 0.0
2015-Jul-21 17:31N 35°31' E 139°50'0 0.0
2015-Jul-21 16:32N 35°31' E 139°50'0 0.0
2015-Jul-21 15:34N 35°31' E 139°50'0 0.0
2015-Jul-21 14:33N 35°31' E 139°50'0 0.0
2015-Jul-21 13:31N 35°31' E 139°50'0 0.0
2015-Jul-21 12:33N 35°31' E 139°50'0 0.0
2015-Jul-21 11:32N 35°31' E 139°50'0 0.0
2015-Jul-21 10:29N 35°31' E 139°50'0 0.0
2015-Jul-21 09:31N 35°31' E 139°50'0 0.1
2015-Jul-21 08:32N 35°31' E 139°50'0 0.0
2015-Jul-21 07:31N 35°31' E 139°50'0 0.0
2015-Jul-21 06:28N 35°31' E 139°50'0 0.0
2015-Jul-21 05:31N 35°31' E 139°50'0 0.0
2015-Jul-21 04:28N 35°31' E 139°50'3 3.1
2015-Jul-21 03:34N 35°32' E 139°53'1111.3
2015-Jul-21 02:33N 35°36' E 140°06'0 0.0
2015-Jul-21 01:34N 35°36' E 140°06'3 2.6
2015-Jul-21 00:34N 35°35' E 140°03'1111.2
2015-Jul-20 23:33N 35°37' E 139°50'0 0.4
2015-Jul-20 22:33N 35°37' E 139°50'7 6.7
2015-Jul-20 21:33N 35°35' E 139°58'7 7.2
2015-Jul-20 20:34N 35°36' E 140°06'0 0.0
2015-Jul-20 19:34N 35°36' E 140°06'0 0.0
2015-Jul-20 18:34N 35°36' E 140°06'0 0.0
2015-Jul-20 17:33N 35°36' E 140°06'0 0.0
2015-Jul-20 16:33N 35°36' E 140°06'0 0.0
2015-Jul-20 15:33N 35°36' E 140°06'0 0.0
2015-Jul-20 14:34N 35°36' E 140°06'0 0.0
2015-Jul-20 13:33N 35°36' E 140°06'0 0.0
2015-Jul-20 12:33N 35°36' E 140°06'0 0.0
2015-Jul-20 11:33N 35°36' E 140°06'0 0.0
2015-Jul-20 10:34N 35°36' E 140°06'0 0.0
2015-Jul-20 09:33N 35°36' E 140°06'0 0.0
2015-Jul-20 08:33N 35°36' E 140°06'0 0.0
2015-Jul-20 07:33N 35°36' E 140°06'0 0.0
2015-Jul-20 06:33N 35°36' E 140°06'0 0.0
2015-Jul-20 05:33N 35°36' E 140°06'0 0.0
2015-Jul-20 04:33N 35°36' E 140°06'0 0.0
2015-Jul-20 03:33N 35°36' E 140°06'0 0.0
2015-Jul-20 02:34N 35°36' E 140°06'0 0.0
2015-Jul-20 01:33N 35°36' E 140°06'0 0.0
2015-Jul-20 00:34N 35°36' E 140°06'0 0.0
2015-Jul-19 23:33N 35°36' E 140°06'2 2.3
2015-Jul-19 22:33N 35°35' E 140°04'0 0.0
2015-Jul-19 21:30N 35°35' E 140°04'0 0.0
2015-Jul-19 20:30N 35°35' E 140°04'0 0.0
2015-Jul-19 19:33N 35°35' E 140°04'0 0.0
2015-Jul-19 18:27N 35°35' E 140°04'0 0.0
2015-Jul-19 17:33N 35°35' E 140°04'0 0.0
2015-Jul-19 16:27N 35°35' E 140°04'0 0.0
2015-Jul-19 15:33N 35°35' E 140°04'0 0.0
2015-Jul-19 14:30N 35°35' E 140°04'0 0.0
2015-Jul-19 13:33N 35°35' E 140°04'0 0.0
2015-Jul-19 12:33N 35°35' E 140°04'0 0.0
2015-Jul-19 11:33N 35°35' E 140°04'0 0.0
2015-Jul-19 10:33N 35°35' E 140°04'0 0.0
2015-Jul-19 09:33N 35°35' E 140°04'0 0.0
2015-Jul-19 08:33N 35°35' E 140°04'0 0.0
2015-Jul-19 07:33N 35°35' E 140°04'4 4.2
2015-Jul-19 06:33N 35°35' E 139°59'5 4.8
2015-Jul-19 05:33N 35°32' E 139°55'9 9.4
2015-Jul-19 04:33N 35°27' E 139°45'6 1.5
2015-Jul-19 00:33N 35°25' E 139°38'0 0.0
2015-Jul-18 23:33N 35°25' E 139°38'3 2.7
2015-Jul-18 22:33N 35°23' E 139°41'8 8.0
2015-Jul-18 21:33N 35°30' E 139°46'0 0.0
2015-Jul-18 03:22N 35°30' E 139°46'6 7.2
2015-Jul-18 02:33N 35°29' E 139°53'1 1.5
2015-Jul-18 01:33N 35°28' E 139°55'0 0.0
2015-Jul-18 00:33N 35°28' E 139°55'0 0.0
2015-Jul-17 23:33N 35°28' E 139°55'0 0.0
2015-Jul-17 22:33N 35°28' E 139°55'0 0.0
2015-Jul-17 21:33N 35°28' E 139°55'0 0.0
2015-Jul-17 20:33N 35°28' E 139°55'0 0.0
2015-Jul-17 19:33N 35°28' E 139°55'0 0.0
2015-Jul-17 18:33N 35°28' E 139°55'0 0.0
2015-Jul-17 17:33N 35°28' E 139°55'0 0.0
2015-Jul-17 16:33N 35°28' E 139°55'0 0.0
2015-Jul-17 15:33N 35°28' E 139°55'0 0.0
2015-Jul-17 14:33N 35°28' E 139°55'0 0.0
2015-Jul-17 13:33N 35°28' E 139°55'0 0.0
2015-Jul-17 12:33N 35°28' E 139°55'0 0.0
2015-Jul-17 11:33N 35°28' E 139°55'0 0.0
2015-Jul-17 10:33N 35°28' E 139°55'0 0.0
2015-Jul-17 09:33N 35°28' E 139°55'0 0.0
2015-Jul-17 08:33N 35°28' E 139°55'0 0.0
2015-Jul-17 07:33N 35°28' E 139°55'0 0.0
2015-Jul-17 06:33N 35°28' E 139°55'0 0.0
2015-Jul-17 05:33N 35°28' E 139°55'0 0.0
2015-Jul-17 04:33N 35°28' E 139°55'0 0.0
2015-Jul-17 03:33N 35°28' E 139°55'0 0.0
2015-Jul-17 02:33N 35°28' E 139°55'0 0.1
2015-Jul-17 01:33N 35°28' E 139°54'0 0.0
2015-Jul-17 00:33N 35°28' E 139°54'0 0.0
2015-Jul-16 23:33N 35°28' E 139°54'0 0.0
2015-Jul-16 22:33N 35°28' E 139°54'0 0.0
2015-Jul-16 21:33N 35°28' E 139°54'0 0.1
2015-Jul-16 20:33N 35°28' E 139°55'0 0.0
2015-Jul-16 19:33N 35°28' E 139°55'0 0.0
2015-Jul-16 18:33N 35°28' E 139°55'0 0.0
2015-Jul-16 17:33N 35°28' E 139°55'0 0.0
2015-Jul-16 16:33N 35°28' E 139°55'0 0.0
2015-Jul-16 15:33N 35°28' E 139°55'0 0.0
2015-Jul-16 14:33N 35°28' E 139°55'0 0.0
2015-Jul-16 13:33N 35°28' E 139°54'0 0.0
2015-Jul-16 12:33N 35°28' E 139°54'0 0.0
2015-Jul-16 11:33N 35°28' E 139°54'0 0.0
2015-Jul-16 10:33N 35°28' E 139°54'0 0.0
2015-Jul-16 09:33N 35°28' E 139°54'0 0.0
2015-Jul-16 08:33N 35°28' E 139°54'0 0.0
2015-Jul-16 07:33N 35°28' E 139°54'0 0.0
2015-Jul-16 06:33N 35°28' E 139°54'0 0.0
2015-Jul-16 05:33N 35°28' E 139°54'0 0.0
2015-Jul-16 04:33N 35°28' E 139°54'0 0.0
2015-Jul-16 03:33N 35°28' E 139°54'0 0.0
2015-Jul-16 02:33N 35°28' E 139°54'0 0.0
2015-Jul-16 01:33N 35°28' E 139°54'0 0.1
2015-Jul-16 00:33N 35°28' E 139°54'4 3.7
2015-Jul-15 23:33N 35°28' E 139°50'10 9.5
2015-Jul-15 22:33N 35°23' E 139°40'0 0.0
2015-Jul-15 21:32N 35°23' E 139°40'0 0.0
2015-Jul-15 20:32N 35°23' E 139°40'0 0.0
2015-Jul-15 19:29N 35°23' E 139°40'0 0.0
2015-Jul-15 18:29N 35°23' E 139°40'0 0.0
2015-Jul-15 17:32N 35°23' E 139°40'0 0.0
2015-Jul-15 16:32N 35°23' E 139°40'0 0.0
2015-Jul-15 15:32N 35°23' E 139°40'0 0.0
2015-Jul-15 14:32N 35°23' E 139°40'0 0.0
2015-Jul-15 13:32N 35°23' E 139°40'0 0.0
2015-Jul-15 12:32N 35°23' E 139°40'0 0.0
2015-Jul-15 11:32N 35°23' E 139°40'0 0.0
2015-Jul-15 10:32N 35°23' E 139°40'0 0.1
2015-Jul-15 09:32N 35°23' E 139°40'0 0.0
2015-Jul-15 08:32N 35°23' E 139°40'0 0.0
2015-Jul-15 07:32N 35°23' E 139°40'0 0.0
2015-Jul-15 06:29N 35°23' E 139°40'0 0.1
2015-Jul-15 05:32N 35°23' E 139°40'0 0.0
2015-Jul-15 04:32N 35°23' E 139°40'0 0.0
2015-Jul-15 03:32N 35°23' E 139°40'0 0.0
2015-Jul-15 02:32N 35°23' E 139°40'0 0.0
2015-Jul-15 01:31N 35°23' E 139°40'0 0.0
2015-Jul-15 00:33N 35°23' E 139°40'0 0.0
2015-Jul-14 23:33N 35°23' E 139°40'0 0.0
2015-Jul-14 22:33N 35°23' E 139°40'0 0.1
2015-Jul-14 21:33N 35°23' E 139°40'0 0.4
2015-Jul-14 20:33N 35°23' E 139°40'4 3.9
2015-Jul-14 19:32N 35°27' E 139°40'0 0.0
2015-Jul-14 18:32N 35°27' E 139°40'0 0.0
2015-Jul-14 17:32N 35°27' E 139°40'0 0.0
2015-Jul-14 16:32N 35°27' E 139°40'0 0.0
2015-Jul-14 15:32N 35°27' E 139°40'0 0.0
2015-Jul-14 14:32N 35°27' E 139°40'0 0.0
2015-Jul-14 13:32N 35°27' E 139°40'0 0.0
2015-Jul-14 12:32N 35°27' E 139°40'0 0.0
2015-Jul-14 11:32N 35°27' E 139°40'0 0.0
2015-Jul-14 10:32N 35°27' E 139°40'0 0.0
2015-Jul-14 09:32N 35°27' E 139°40'0 0.0
2015-Jul-14 08:32N 35°27' E 139°40'0 0.0
2015-Jul-14 07:32N 35°27' E 139°40'0 0.0
2015-Jul-14 06:32N 35°27' E 139°40'0 0.0
2015-Jul-14 05:32N 35°27' E 139°40'0 0.0
2015-Jul-14 04:33N 35°27' E 139°40'0 0.0
2015-Jul-14 03:33N 35°27' E 139°40'0 0.0
2015-Jul-14 02:33N 35°27' E 139°40'0 0.4
2015-Jul-14 01:33N 35°27' E 139°40'5 4.5
2015-Jul-14 00:32N 35°23' E 139°40'0 0.0
2015-Jul-13 23:32N 35°23' E 139°40'0 0.0
2015-Jul-13 22:32N 35°23' E 139°40'0 0.0
2015-Jul-13 21:33N 35°23' E 139°40'0 0.0
2015-Jul-13 20:32N 35°23' E 139°40'0 0.0
2015-Jul-13 19:32N 35°23' E 139°40'0 0.0
2015-Jul-13 18:33N 35°23' E 139°40'0 0.0
2015-Jul-13 17:32N 35°23' E 139°40'0 0.0
2015-Jul-13 16:33N 35°23' E 139°40'0 0.0
2015-Jul-13 15:33N 35°23' E 139°40'0 0.0
2015-Jul-13 14:32N 35°23' E 139°40'0 0.0
2015-Jul-13 13:32N 35°23' E 139°40'0 0.0
2015-Jul-13 12:33N 35°23' E 139°40'0 0.0
2015-Jul-13 11:32N 35°23' E 139°40'0 0.0
2015-Jul-13 10:33N 35°23' E 139°40'0 0.0
2015-Jul-13 09:33N 35°23' E 139°40'0 0.0
2015-Jul-13 08:32N 35°23' E 139°40'0 0.0
2015-Jul-13 07:33N 35°23' E 139°40'0 0.0
2015-Jul-13 06:32N 35°23' E 139°40'0 0.0
2015-Jul-13 05:33N 35°23' E 139°40'  

Dump ship's entire track history